Time;durP1;ratioP1;P1;durP2;ratioP2;P2;SDS_P1;SDS_P2;PMS_P1;PMS_P2;Temp;Humidity;BMP_temperature;BMP_pressure;BME280_temperature;BME280_humidity;BME280_pressure;Samples;Min_cycle;Max_cycle;Signal;HPM_P1;HPM_P2
2021/11/20 00:01:23;;;;;;;;;;;;;;;10.85;90.24;100357.59;5023477;28;20394;-73
2021/11/20 00:03:49;;;;;;;;;;;;;;;10.68;92.48;100355.22;5007155;28;20012;-68
2021/11/20 00:06:16;;;;;;;;;;;;;;;10.70;93.01;100353.47;5040161;28;19913;-68
2021/11/20 00:08:42;;;;;;;;;;;;;;;10.72;92.63;100354.31;5036474;28;20015;-69
2021/11/20 00:11:08;;;;;;;;;;;;;;;10.60;92.86;100351.84;5040292;28;20003;-69
2021/11/20 00:13:34;;;;;;;;;;;;;;;10.67;92.31;100344.06;5040484;28;19921;-69
2021/11/20 00:16:00;;;;;;;;;;;;;;;10.37;93.76;100345.19;5041376;28;19913;-68
2021/11/20 00:18:26;;;;;;;;;;;;;;;10.41;91.90;100344.31;5021694;28;19921;-68
2021/11/20 00:20:55;;;;;;;;;;;;;;;10.66;93.00;100346.66;5039956;28;19987;-69
2021/11/20 00:23:25;;;;;;;;;;;;;;;10.78;91.96;100345.66;5040367;28;19924;-69
2021/11/20 00:25:52;;;;;;;;;;;;;;;10.74;94.40;100344.84;5038859;28;19924;-69
2021/11/20 00:28:28;;;;;;;;;;;;;;;10.65;94.77;100350.94;5020862;28;19917;-69
2021/11/20 00:31:06;;;;;;;;;;;;;;;10.83;93.87;100344.75;5023562;28;19921;-69
2021/11/20 00:33:36;;;;;;;;;;;;;;;10.56;93.78;100338.16;5020133;28;19932;-68
2021/11/20 00:36:02;;;;;;;;;;;;;;;10.57;93.50;100342.44;5039811;28;20379;-69
2021/11/20 00:38:31;;;;;;;;;;;;;;;10.47;94.28;100340.84;5022090;28;20019;-69
2021/11/20 00:41:07;;;;;;;;;;;;;;;10.49;94.00;100343.38;5021510;28;19920;-69
2021/11/20 00:43:33;;;;;;;;;;;;;;;10.73;92.39;100335.41;5040601;28;19927;-69
2021/11/20 00:46:01;;;;;;;;;;;;;;;10.65;94.66;100342.34;5040173;28;19920;-69
2021/11/20 00:48:26;;;;;;;;;;;;;;;10.56;95.53;100334.72;5039458;28;20368;-69
2021/11/20 00:50:54;;;;;;;;;;;;;;;10.58;94.83;100335.56;5022606;28;19962;-69
2021/11/20 00:53:19;;;;;;;;;;;;;;;10.85;98.18;100332.66;5039829;28;19925;-69
2021/11/20 00:55:47;;;;;;;;;;;;;;;11.24;99.90;100327.03;5039375;28;19917;-69
2021/11/20 00:58:16;;;;;;;;;;;;;;;10.45;100.00;100322.81;5040105;28;19917;-69
2021/11/20 01:00:43;;;;;;;;;;;;;;;10.87;99.96;100315.47;5020982;28;19924;-69
2021/11/20 01:03:12;;;;;;;;;;;;;;;10.77;100.00;100308.72;5022764;28;20015;-69
2021/11/20 01:05:37;;;;;;;;;;;;;;;10.81;100.00;100317.25;5039055;28;19913;-69
2021/11/20 01:08:04;;;;;;;;;;;;;;;10.68;100.00;100308.84;5022012;28;20331;-69
2021/11/20 01:10:34;;;;;;;;;;;;;;;10.54;100.00;100315.88;5039320;28;19927;-69
2021/11/20 01:12:59;;;;;;;;;;;;;;;10.93;100.00;100313.72;5039568;28;19922;-69
2021/11/20 01:15:30;;;;;;;;;;;;;;;11.01;100.00;100319.59;5020260;28;19924;-69
2021/11/20 01:17:56;;;;;;;;;;;;;;;10.73;100.00;100307.06;5039862;28;19924;-69
2021/11/20 01:20:22;;;;;;;;;;;;;;;10.89;100.00;100308.56;5020984;28;20011;-69
2021/11/20 01:22:47;;;;;;;;;;;;;;;10.59;100.00;100299.47;5038198;28;20007;-69
2021/11/20 01:25:33;;;;;;;;;;;;;;;10.89;100.00;100308.56;5039323;28;19943;-69
2021/11/20 01:27:59;;;;;;;;;;;;;;;10.72;100.00;100297.63;5037539;28;19921;-69
2021/11/20 01:30:24;;;;;;;;;;;;;;;10.94;100.00;100290.47;5021200;28;19920;-69
2021/11/20 01:32:49;;;;;;;;;;;;;;;11.06;100.00;100285.16;5035328;28;19932;-69
2021/11/20 01:35:16;;;;;;;;;;;;;;;11.12;100.00;100273.06;5036283;28;19972;-69
2021/11/20 01:37:48;;;;;;;;;;;;;;;11.06;100.00;100279.13;5020457;28;19916;-69
2021/11/20 01:40:18;;;;;;;;;;;;;;;10.95;100.00;100275.84;5021999;28;19960;-69
2021/11/20 01:42:44;;;;;;;;;;;;;;;10.78;100.00;100273.50;5021258;28;19927;-69
2021/11/20 01:45:14;;;;;;;;;;;;;;;11.11;100.00;100261.91;5038066;28;19921;-69
2021/11/20 01:47:49;;;;;;;;;;;;;;;10.86;100.00;100256.22;5037670;28;19920;-69
2021/11/20 01:50:18;;;;;;;;;;;;;;;10.84;100.00;100258.81;5020100;28;19943;-69
2021/11/20 01:52:43;;;;;;;;;;;;;;;10.53;100.00;100262.63;5026190;28;20424;-69
2021/11/20 01:55:27;;;;;;;;;;;;;;;10.99;100.00;100264.63;5004740;28;19928;-69
2021/11/20 01:57:57;;;;;;;;;;;;;;;11.14;100.00;100261.00;5006453;28;19929;-69
2021/11/20 02:00:25;;;;;;;;;;;;;;;11.10;100.00;100260.19;5008083;28;19925;-69
2021/11/20 02:03:09;;;;;;;;;;;;;;;10.94;100.00;100253.53;5008110;28;20015;-69
2021/11/20 02:05:38;;;;;;;;;;;;;;;11.27;100.00;100247.06;5002564;28;19924;-69
2021/11/20 02:08:10;;;;;;;;;;;;;;;10.76;100.00;100239.16;5009331;28;19921;-69
2021/11/20 02:10:53;;;;;;;;;;;;;;;10.87;100.00;100245.03;5003927;28;19921;-69
2021/11/20 02:13:20;;;;;;;;;;;;;;;10.74;100.00;100249.50;5002399;28;19926;-69
2021/11/20 02:16:24;;;;;;;;;;;;;;;10.93;100.00;100244.97;5001773;28;19937;-69
2021/11/20 02:18:53;;;;;;;;;;;;;;;11.07;100.00;100239.63;4928204;29;19970;-69
2021/11/20 02:21:22;;;;;;;;;;;;;;;10.65;100.00;100247.91;4928106;29;20326;-69
2021/11/20 02:23:47;;;;;;;;;;;;;;;10.56;100.00;100248.00;4919359;29;20033;-69
2021/11/20 02:26:12;;;;;;;;;;;;;;;10.81;100.00;100242.53;4928696;29;20029;-69
2021/11/20 02:28:39;;;;;;;;;;;;;;;10.86;100.00;100248.50;4927133;29;19930;-69
2021/11/20 02:31:04;;;;;;;;;;;;;;;10.52;100.00;100245.50;4927308;29;19921;-69
2021/11/20 02:33:40;;;;;;;;;;;;;;;10.57;100.00;100241.13;4919110;29;20015;-69
2021/11/20 02:36:07;;;;;;;;;;;;;;;10.93;100.00;100246.69;4916340;29;19962;-69
2021/11/20 02:38:37;;;;;;;;;;;;;;;10.98;100.00;100250.91;4917243;29;19925;-68
2021/11/20 02:41:03;;;;;;;;;;;;;;;11.15;100.00;100244.66;4927646;29;19918;-69
2021/11/20 02:43:30;;;;;;;;;;;;;;;11.34;100.00;100237.50;4929975;29;19937;-69
2021/11/20 02:46:06;;;;;;;;;;;;;;;11.01;100.00;100234.53;4916884;29;20445;-69
2021/11/20 02:48:31;;;;;;;;;;;;;;;11.06;100.00;100232.75;4921796;28;19962;-69
2021/11/20 02:51:19;;;;;;;;;;;;;;;11.08;100.00;100225.84;5002871;28;19963;-69
2021/11/20 02:53:55;;;;;;;;;;;;;;;10.94;100.00;100230.34;5029584;28;19924;-69
2021/11/20 02:56:25;;;;;;;;;;;;;;;10.78;100.00;100227.97;5037061;28;19921;-69
2021/11/20 02:58:57;;;;;;;;;;;;;;;10.83;100.00;100220.16;5019408;28;20007;-69
2021/11/20 03:01:35;;;;;;;;;;;;;;;10.89;100.00;100226.09;5037725;28;20011;-68
2021/11/20 03:04:03;;;;;;;;;;;;;;;11.19;100.00;100220.53;5018791;28;19920;-68
2021/11/20 03:06:28;;;;;;;;;;;;;;;10.85;100.00;100219.28;5042828;28;19917;-68
2021/11/20 03:08:57;;;;;;;;;;;;;;;11.08;100.00;100220.69;5039546;28;19975;-68
2021/11/20 03:11:23;;;;;;;;;;;;;;;10.64;100.00;100223.00;5042872;28;19978;-68
2021/11/20 03:13:52;;;;;;;;;;;;;;;11.02;100.00;100225.94;5041111;28;19932;-68
2021/11/20 03:16:18;;;;;;;;;;;;;;;10.67;100.00;100219.50;5042047;28;19964;-68
2021/11/20 03:18:44;;;;;;;;;;;;;;;10.74;100.00;100215.13;5040048;28;20053;-68
2021/11/20 03:21:16;;;;;;;;;;;;;;;10.49;100.00;100219.75;5024682;28;20019;-68
2021/11/20 03:23:43;;;;;;;;;;;;;;;10.79;100.00;100219.38;5035657;28;19921;-68
2021/11/20 03:26:08;;;;;;;;;;;;;;;10.85;100.00;100213.28;5025080;28;19924;-68
2021/11/20 03:28:34;;;;;;;;;;;;;;;10.54;100.00;100207.69;5040395;28;19927;-68
2021/11/20 03:30:59;;;;;;;;;;;;;;;10.97;100.00;100207.09;5042004;28;20648;-68
2021/11/20 03:33:25;;;;;;;;;;;;;;;10.72;100.00;100207.44;5023426;28;19925;-68
2021/11/20 03:35:53;;;;;;;;;;;;;;;10.67;100.00;100199.78;5042723;28;19970;-68
2021/11/20 03:38:19;;;;;;;;;;;;;;;11.04;100.00;100201.00;5023762;28;20273;-68
2021/11/20 03:40:44;;;;;;;;;;;;;;;11.28;100.00;100187.72;5024871;28;19924;-68
2021/11/20 03:43:10;;;;;;;;;;;;;;;11.25;100.00;100192.94;5040648;28;19924;-68
2021/11/20 03:45:35;;;;;;;;;;;;;;;11.04;100.00;100201.00;5041327;28;20004;-68
2021/11/20 03:48:01;;;;;;;;;;;;;;;10.77;100.00;100191.94;5022890;28;19920;-68
2021/11/20 03:50:27;;;;;;;;;;;;;;;10.89;100.00;100190.00;5024266;28;19928;-68
2021/11/20 03:52:53;;;;;;;;;;;;;;;10.98;100.00;100185.63;5039531;28;19963;-68
2021/11/20 03:55:26;;;;;;;;;;;;;;;11.05;100.00;100184.66;5041875;28;19932;-68
2021/11/20 03:57:51;;;;;;;;;;;;;;;10.96;100.00;100180.47;5022857;28;19963;-68
2021/11/20 04:00:27;;;;;;;;;;;;;;;11.02;100.00;100182.13;5040401;28;20355;-69
2021/11/20 04:02:52;;;;;;;;;;;;;;;10.96;100.00;100184.78;5024729;28;20380;-68
2021/11/20 04:05:18;;;;;;;;;;;;;;;10.61;100.00;100188.72;5040935;28;19925;-68
2021/11/20 04:07:47;;;;;;;;;;;;;;;10.97;100.00;100182.19;5023495;28;19963;-68
2021/11/20 04:10:12;;;;;;;;;;;;;;;10.65;100.00;100182.63;5038824;28;19968;-68
2021/11/20 04:12:38;;;;;;;;;;;;;;;11.19;100.00;100187.00;5022017;28;19924;-68
2021/11/20 04:15:05;;;;;;;;;;;;;;;10.92;100.00;100188.28;5039042;28;19924;-68
2021/11/20 04:17:30;;;;;;;;;;;;;;;11.09;100.00;100183.72;5022465;28;19956;-68
2021/11/20 04:19:55;;;;;;;;;;;;;;;11.08;100.00;100179.44;5040318;28;19955;-66
2021/11/20 04:22:21;;;;;;;;;;;;;;;10.99;100.00;100169.25;5040585;28;19963;-66
2021/11/20 04:24:46;;;;;;;;;;;;;;;10.77;100.00;100169.59;5038368;28;19917;-66
2021/11/20 04:27:21;;;;;;;;;;;;;;;10.56;100.00;100183.63;5021861;28;19916;-66
2021/11/20 04:29:46;;;;;;;;;;;;;;;10.68;100.00;100175.72;5040241;28;19970;-66
2021/11/20 04:32:11;;;;;;;;;;;;;;;10.73;100.00;100183.38;5022270;28;19916;-66
2021/11/20 04:34:38;;;;;;;;;;;;;;;10.94;100.00;100173.63;5039318;28;19939;-66
2021/11/20 04:37:09;;;;;;;;;;;;;;;10.64;100.00;100176.63;5041397;28;19920;-66
2021/11/20 04:39:35;;;;;;;;;;;;;;;10.59;100.00;100167.25;5023863;28;19978;-67
2021/11/20 04:42:06;;;;;;;;;;;;;;;10.42;100.00;100168.34;5022951;28;19912;-66
2021/11/20 04:44:34;;;;;;;;;;;;;;;11.01;100.00;100172.66;5037650;28;19920;-66
2021/11/20 04:47:00;;;;;;;;;;;;;;;11.09;100.00;100170.84;5022529;28;19913;-66
2021/11/20 04:49:25;;;;;;;;;;;;;;;10.67;100.00;100168.88;5022090;28;19986;-66
2021/11/20 04:51:50;;;;;;;;;;;;;;;10.60;100.00;100174.94;5040787;28;19916;-67
2021/11/20 04:54:16;;;;;;;;;;;;;;;10.86;100.00;100174.59;5038327;28;19924;-66
2021/11/20 04:56:41;;;;;;;;;;;;;;;10.50;100.00;100175.97;5040154;28;19952;-66
2021/11/20 04:59:07;;;;;;;;;;;;;;;11.00;100.00;100173.56;5021284;28;20565;-66
2021/11/20 05:01:32;;;;;;;;;;;;;;;10.92;100.00;100176.22;5040356;28;20541;-66
2021/11/20 05:04:00;;;;;;;;;;;;;;;10.80;100.00;100164.38;5017666;28;19923;-66
2021/11/20 05:06:25;;;;;;;;;;;;;;;10.77;100.00;100168.75;5040107;28;19917;-67
2021/11/20 05:08:51;;;;;;;;;;;;;;;10.41;100.00;100165.78;5038339;28;20002;-66
2021/11/20 05:11:17;;;;;;;;;;;;;;;10.42;100.00;100168.34;5021490;28;19925;-66
2021/11/20 05:13:43;;;;;;;;;;;;;;;10.64;100.00;100170.63;5020154;28;19928;-67
2021/11/20 05:16:08;;;;;;;;;;;;;;;10.99;100.00;100164.97;5022066;28;19925;-66
2021/11/20 05:18:34;;;;;;;;;;;;;;;10.93;100.00;100151.34;5039381;28;20374;-67
2021/11/20 05:21:00;;;;;;;;;;;;;;;10.85;100.00;100141.97;5039140;28;19925;-67
2021/11/20 05:23:26;;;;;;;;;;;;;;;10.51;100.00;100156.19;5039271;28;19928;-66
2021/11/20 05:25:52;;;;;;;;;;;;;;;10.87;100.00;100145.38;5039914;28;19917;-66
2021/11/20 05:28:17;;;;;;;;;;;;;;;10.92;100.00;100149.63;5019965;28;19942;-66
2021/11/20 05:30:43;;;;;;;;;;;;;;;10.89;100.00;100138.47;5021861;28;19921;-67
2021/11/20 05:33:11;;;;;;;;;;;;;;;11.03;100.00;100137.41;5020336;28;20392;-66
2021/11/20 05:35:38;;;;;;;;;;;;;;;11.00;100.00;100129.75;5020948;28;19920;-66
2021/11/20 05:38:04;;;;;;;;;;;;;;;10.71;100.00;100125.84;5019263;28;20458;-66
2021/11/20 05:40:29;;;;;;;;;;;;;;;10.80;100.00;100118.00;5038669;28;19913;-66
2021/11/20 05:42:56;;;;;;;;;;;;;;;10.63;100.00;100127.72;5037597;28;19928;-66
2021/11/20 05:45:22;;;;;;;;;;;;;;;10.26;100.00;100134.16;5039858;28;19923;-67
2021/11/20 05:47:48;;;;;;;;;;;;;;;10.54;100.00;100135.56;5019458;28;19916;-67
2021/11/20 05:50:16;;;;;;;;;;;;;;;10.57;100.00;100130.38;5020963;28;19917;-67
2021/11/20 05:52:41;;;;;;;;;;;;;;;10.57;100.00;100130.38;5019625;28;19936;-67
2021/11/20 05:55:07;;;;;;;;;;;;;;;10.50;100.00;100128.75;5020197;28;19920;-66
2021/11/20 05:57:32;;;;;;;;;;;;;;;10.49;100.00;100134.75;5020837;28;20497;-67
2021/11/20 05:59:58;;;;;;;;;;;;;;;10.45;100.00;100127.09;5039396;28;19986;-66
2021/11/20 06:02:23;;;;;;;;;;;;;;;10.46;100.00;100123.63;5037273;28;19970;-66
2021/11/20 06:04:48;;;;;;;;;;;;;;;10.11;100.00;100133.50;5039265;28;19923;-66
2021/11/20 06:07:14;;;;;;;;;;;;;;;10.12;100.00;100133.47;5037573;28;19921;-66
2021/11/20 06:09:44;;;;;;;;;;;;;;;10.52;100.00;100143.31;5038690;28;19913;-66
2021/11/20 06:12:12;;;;;;;;;;;;;;;10.73;100.00;100131.00;5018918;28;20973;-67
2021/11/20 06:14:38;;;;;;;;;;;;;;;10.59;100.00;100128.63;5020537;28;20553;-66
2021/11/20 06:17:03;;;;;;;;;;;;;;;10.33;100.00;100127.25;5019652;28;19917;-66
2021/11/20 06:19:33;;;;;;;;;;;;;;;10.57;100.00;100120.91;5038777;28;19921;-66
2021/11/20 06:22:01;;;;;;;;;;;;;;;10.46;100.00;100123.63;5037198;28;19917;-66
2021/11/20 06:24:29;;;;;;;;;;;;;;;10.71;100.00;100112.97;5039153;28;19920;-66
2021/11/20 06:26:55;;;;;;;;;;;;;;;10.59;100.00;100113.16;5037410;28;19936;-66
2021/11/20 06:29:21;;;;;;;;;;;;;;;10.81;100.00;100109.41;5039240;28;19923;-66
2021/11/20 06:31:48;;;;;;;;;;;;;;;10.65;100.00;100108.78;5036548;28;19919;-66
2021/11/20 06:34:20;;;;;;;;;;;;;;;11.13;100.00;100105.47;5039293;28;19920;-66
2021/11/20 06:36:45;;;;;;;;;;;;;;;11.29;100.00;100094.00;5038421;28;19916;-67
2021/11/20 06:39:14;;;;;;;;;;;;;;;10.71;100.00;100097.53;5001839;28;19939;-67
2021/11/20 06:41:43;;;;;;;;;;;;;;;10.40;100.00;100099.69;5036553;28;19929;-67
2021/11/20 06:44:08;;;;;;;;;;;;;;;10.63;100.00;100102.81;5031245;28;19920;-66
2021/11/20 06:46:34;;;;;;;;;;;;;;;11.28;100.00;100105.19;5037625;28;19954;-66
2021/11/20 06:49:00;;;;;;;;;;;;;;;10.99;100.00;100104.81;5019368;28;19967;-66
2021/11/20 06:51:25;;;;;;;;;;;;;;;10.96;100.00;100092.00;5019642;28;19916;-66
2021/11/20 06:53:50;;;;;;;;;;;;;;;10.98;100.00;100097.97;5016586;28;19967;-66
2021/11/20 06:56:32;;;;;;;;;;;;;;;11.18;100.00;100108.81;5018505;28;19914;-66
2021/11/20 07:01:41;;;;;;;;;;;;;;;11.16;100.00;100097.69;5018021;28;20410;-67
2021/11/20 07:04:16;;;;;;;;;;;;;;;11.24;100.00;100097.53;5014621;28;20011;-66
2021/11/20 07:06:46;;;;;;;;;;;;;;;10.99;100.00;100102.25;5018432;28;19928;-67
2021/11/20 07:09:12;;;;;;;;;;;;;;;10.98;100.00;100100.56;5014899;28;19967;-66
2021/11/20 07:11:40;;;;;;;;;;;;;;;10.48;100.00;100102.16;5017080;28;20007;-67
2021/11/20 07:14:08;;;;;;;;;;;;;;;10.54;100.00;100102.09;5015452;28;19964;-66
2021/11/20 07:16:35;;;;;;;;;;;;;;;10.48;100.00;100099.59;5000340;28;19913;-67
2021/11/20 07:19:04;;;;;;;;;;;;;;;10.64;100.00;100093.34;5016610;28;20598;-66
2021/11/20 07:21:32;;;;;;;;;;;;;;;10.88;100.00;100094.69;5016204;28;19917;-67
2021/11/20 07:23:58;;;;;;;;;;;;;;;10.86;100.00;100092.16;5015724;28;19943;-67
2021/11/20 07:26:24;;;;;;;;;;;;;;;11.07;100.00;100080.63;5016072;28;20032;-67
2021/11/20 07:28:53;;;;;;;;;;;;;;;11.10;100.00;100074.56;5017246;28;20035;-67
2021/11/20 07:31:18;;;;;;;;;;;;;;;10.72;100.00;100070.91;5017941;28;19992;-67
2021/11/20 07:33:44;;;;;;;;;;;;;;;10.83;100.00;100071.59;5012980;28;19921;-67
2021/11/20 07:36:19;;;;;;;;;;;;;;;10.81;100.00;100068.19;5016528;28;19924;-67
2021/11/20 07:38:48;;;;;;;;;;;;;;;10.73;100.00;100067.44;5017133;28;19917;-67
2021/11/20 07:41:14;;;;;;;;;;;;;;;10.97;100.00;100068.78;5014325;28;19974;-66
2021/11/20 07:43:39;;;;;;;;;;;;;;;11.10;100.00;100061.69;5015845;28;20368;-67
2021/11/20 07:46:06;;;;;;;;;;;;;;;11.10;100.00;100059.09;5014948;28;20299;-67
2021/11/20 07:48:31;;;;;;;;;;;;;;;10.88;100.00;100058.63;5016771;28;19980;-66
2021/11/20 07:50:57;;;;;;;;;;;;;;;11.08;100.00;100055.69;5016559;28;19921;-66
2021/11/20 07:53:24;;;;;;;;;;;;;;;11.30;100.00;100053.59;5018927;28;19921;-66
2021/11/20 07:55:49;;;;;;;;;;;;;;;11.02;100.00;100050.66;5020144;28;19925;-67
2021/11/20 07:58:18;;;;;;;;;;;;;;;10.80;100.00;100055.31;5020237;28;19927;-66
2021/11/20 08:00:43;;;;;;;;;;;;;;;10.52;100.00;100054.91;5018439;28;19971;-66
2021/11/20 08:03:09;;;;;;;;;;;;;;;11.00;100.00;100053.25;5020207;28;19928;-67
2021/11/20 08:05:35;;;;;;;;;;;;;;;10.71;100.00;100056.31;5019713;28;19928;-66
2021/11/20 08:08:03;;;;;;;;;;;;;;;10.40;100.00;100043.91;5017707;28;19918;-67
2021/11/20 08:10:29;;;;;;;;;;;;;;;11.07;100.00;100043.69;5018884;28;19932;-67
2021/11/20 08:12:55;;;;;;;;;;;;;;;10.92;100.00;100044.78;5003011;28;19921;-67
2021/11/20 08:15:20;;;;;;;;;;;;;;;10.50;100.00;100043.75;5019376;28;19918;-66
2021/11/20 08:17:46;;;;;;;;;;;;;;;10.82;100.00;100049.25;5018953;28;19924;-66
2021/11/20 08:20:15;;;;;;;;;;;;;;;10.75;100.00;100037.34;5018616;28;20034;-66
2021/11/20 08:22:41;;;;;;;;;;;;;;;10.49;100.00;100045.50;5018469;28;19917;-65
2021/11/20 08:25:11;;;;;;;;;;;;;;;10.93;100.00;100035.34;5016074;28;20439;-66
2021/11/20 08:27:36;;;;;;;;;;;;;;;10.88;100.00;100033.69;5019971;28;19917;-66
2021/11/20 08:30:07;;;;;;;;;;;;;;;10.99;100.00;100035.22;5019446;28;19917;-67
2021/11/20 08:32:32;;;;;;;;;;;;;;;10.80;100.00;100034.69;5003368;28;19928;-66
2021/11/20 08:34:58;;;;;;;;;;;;;;;10.80;100.00;100038.13;5019358;28;19917;-66
2021/11/20 08:37:24;;;;;;;;;;;;;;;10.48;100.00;100032.63;5020361;28;19952;-66
2021/11/20 08:39:51;;;;;;;;;;;;;;;10.61;100.00;100029.84;5019648;28;20022;-67
2021/11/20 08:42:16;;;;;;;;;;;;;;;11.17;100.00;100028.91;5019247;28;19932;-67
2021/11/20 08:44:42;;;;;;;;;;;;;;;10.20;100.00;100020.13;5018405;28;19917;-66
2021/11/20 08:47:07;;;;;;;;;;;;;;;10.61;100.00;100018.69;5019328;28;20012;-66
2021/11/20 08:49:36;;;;;;;;;;;;;;;10.27;100.00;100014.84;5016480;28;19976;-66
2021/11/20 08:52:07;;;;;;;;;;;;;;;10.49;100.00;100014.59;5021024;28;20499;-67
2021/11/20 08:54:34;;;;;;;;;;;;;;;11.02;100.00;100019.72;5023223;28;19963;-67
2021/11/20 08:57:00;;;;;;;;;;;;;;;11.26;100.00;100018.41;5022370;28;20292;-66
2021/11/20 08:59:26;;;;;;;;;;;;;;;10.45;100.00;100008.63;5039190;28;19917;-67
2021/11/20 09:01:54;;;;;;;;;;;;;;;11.38;100.00;100017.34;5021347;28;20587;-66
2021/11/20 09:04:25;;;;;;;;;;;;;;;10.55;100.00;100013.63;5021522;28;19928;-66
2021/11/20 09:06:53;;;;;;;;;;;;;;;10.85;100.00;100010.53;5040082;28;19920;-66
2021/11/20 09:09:24;;;;;;;;;;;;;;;11.01;100.00;100008.53;5038734;28;19917;-67
2021/11/20 09:11:56;;;;;;;;;;;;;;;10.98;100.00;100008.63;5039246;28;19920;-66
2021/11/20 09:14:21;;;;;;;;;;;;;;;11.38;100.00;99996.72;5036618;28;19964;-66
2021/11/20 09:16:47;;;;;;;;;;;;;;;10.69;100.00;99993.63;5038972;28;19959;-66
2021/11/20 09:19:12;;;;;;;;;;;;;;;10.72;100.00;99985.88;5021970;28;19925;-66
2021/11/20 09:21:38;;;;;;;;;;;;;;;11.02;100.00;99983.66;5021463;28;19921;-66
2021/11/20 09:24:04;;;;;;;;;;;;;;;10.98;100.00;99976.84;5019342;28;19924;-66
2021/11/20 09:26:30;;;;;;;;;;;;;;;10.83;100.00;99977.94;5037194;28;20296;-66
2021/11/20 09:28:56;;;;;;;;;;;;;;;10.88;100.00;99971.84;5020363;28;20334;-66
2021/11/20 09:31:22;;;;;;;;;;;;;;;11.05;100.00;99973.28;5020214;28;19927;-67
2021/11/20 09:33:48;;;;;;;;;;;;;;;10.78;100.00;99975.44;5020729;28;19921;-66
2021/11/20 09:36:13;;;;;;;;;;;;;;;11.13;100.00;99974.00;5039006;28;20265;-66
2021/11/20 09:38:40;;;;;;;;;;;;;;;11.83;100.00;99978.59;5019971;28;19924;-66
2021/11/20 09:41:05;;;;;;;;;;;;;;;12.01;100.00;99962.75;5021545;28;19968;-66
2021/11/20 09:43:35;;;;;;;;;;;;;;;11.43;100.00;99963.97;5038218;28;19971;-67
2021/11/20 09:46:09;;;;;;;;;;;;;;;11.24;100.00;99966.91;5018369;28;19928;-66
2021/11/20 09:48:37;;;;;;;;;;;;;;;11.13;100.00;99965.38;5021072;28;19955;-67
2021/11/20 09:51:09;;;;;;;;;;;;;;;11.45;100.00;99963.03;5020181;28;20359;-67
2021/11/20 09:53:34;;;;;;;;;;;;;;;11.78;100.00;99957.22;5037782;28;20020;-66
2021/11/20 09:56:01;;;;;;;;;;;;;;;11.36;100.00;99957.19;5036930;28;20011;-66
2021/11/20 09:58:37;;;;;;;;;;;;;;;11.41;100.00;99957.97;5039308;28;19928;-67
2021/11/20 10:01:21;;;;;;;;;;;;;;;11.20;100.00;99952.38;5019552;28;19951;-66
2021/11/20 10:04:02;;;;;;;;;;;;;;;11.04;100.00;99956.13;5033462;28;19920;-66
2021/11/20 10:06:29;;;;;;;;;;;;;;;10.83;100.00;99947.91;5038725;28;19920;-66
2021/11/20 10:09:21;;;;;;;;;;;;;;;11.26;100.00;99944.50;5035160;28;19947;-66
2021/11/20 10:11:52;;;;;;;;;;;;;;;11.15;100.00;99943.00;5006546;28;20280;-67
2021/11/20 10:14:28;;;;;;;;;;;;;;;11.14;100.00;99936.16;5036777;28;19972;-66
2021/11/20 10:16:56;;;;;;;;;;;;;;;11.11;100.00;99937.06;5034504;28;19913;-65
2021/11/20 10:19:24;;;;;;;;;;;;;;;10.61;100.00;99946.56;5035093;28;19920;-66
2021/11/20 10:21:58;;;;;;;;;;;;;;;11.02;100.00;99942.41;5038128;28;19913;-66
2021/11/20 10:24:37;;;;;;;;;;;;;;;10.57;100.00;99942.34;5037483;28;19926;-67
2021/11/20 10:27:09;;;;;;;;;;;;;;;10.98;100.00;99938.19;5018680;28;19925;-68
2021/11/20 10:29:34;;;;;;;;;;;;;;;10.88;100.00;99935.78;5020862;28;19920;-68
2021/11/20 10:32:09;;;;;;;;;;;;;;;10.63;100.00;99940.50;5040520;28;19916;-67
2021/11/20 10:34:44;;;;;;;;;;;;;;;11.11;100.00;99939.66;5021063;28;19917;-68
2021/11/20 10:37:15;;;;;;;;;;;;;;;10.93;100.00;99933.13;5038722;28;19959;-68
2021/11/20 10:39:42;;;;;;;;;;;;;;;10.91;100.00;99923.72;5020229;28;19940;-68
2021/11/20 10:42:08;;;;;;;;;;;;;;;10.52;100.00;99926.97;5039588;28;20008;-67
2021/11/20 10:44:42;;;;;;;;;;;;;;;10.27;100.00;99926.47;5036292;28;20447;-67
2021/11/20 10:47:11;;;;;;;;;;;;;;;10.44;100.00;99919.34;5020352;28;19963;-67
2021/11/20 10:49:55;;;;;;;;;;;;;;;10.67;100.00;99915.53;5037169;28;19921;-67
2021/11/20 10:52:26;;;;;;;;;;;;;;;10.76;100.00;99910.22;5029909;28;19940;-67
2021/11/20 10:55:01;;;;;;;;;;;;;;;10.68;100.00;99896.63;4996986;28;19921;-67
2021/11/20 10:57:53;;;;;;;;;;;;;;;11.05;100.00;99890.78;4998094;28;19914;-68
2021/11/20 11:00:19;;;;;;;;;;;;;;;11.05;100.00;99875.31;4997283;28;19922;-68
2021/11/20 11:02:59;;;;;;;;;;;;;;;10.68;100.00;99876.03;4998660;28;20198;-67
2021/11/20 11:05:30;;;;;;;;;;;;;;;10.66;100.00;99878.63;4997940;28;20467;-68
2021/11/20 11:07:56;;;;;;;;;;;;;;;11.09;100.00;99876.97;4999194;28;19913;-67
2021/11/20 11:10:36;;;;;;;;;;;;;;;11.02;100.00;99870.22;4995282;28;19918;-66
2021/11/20 11:13:05;;;;;;;;;;;;;;;10.67;100.00;99861.44;4979822;28;19980;-68
2021/11/20 11:15:45;;;;;;;;;;;;;;;10.99;100.00;99859.97;4979272;28;19928;-66
2021/11/20 11:18:30;;;;;;;;;;;;;;;11.12;100.00;99868.31;4980338;28;20305;-67
2021/11/20 11:20:58;;;;;;;;;;;;;;;10.72;100.00;99857.06;4998932;28;19941;-67
2021/11/20 11:23:42;;;;;;;;;;;;;;;10.87;100.00;99861.91;4995905;28;19953;-67
2021/11/20 11:26:09;;;;;;;;;;;;;;;11.28;100.00;99857.63;4999367;28;20000;-66
2021/11/20 11:28:43;;;;;;;;;;;;;;;11.18;100.00;99851.00;4982242;28;20396;-66
2021/11/20 11:31:14;;;;;;;;;;;;;;;10.96;100.00;99845.41;4983424;28;19921;-66
2021/11/20 11:33:47;;;;;;;;;;;;;;;11.07;100.00;99840.91;5000852;28;19972;-67
2021/11/20 11:36:19;;;;;;;;;;;;;;;11.49;100.00;99829.69;5000041;28;19921;-67
2021/11/20 11:38:58;;;;;;;;;;;;;;;11.09;100.00;99825.41;4983365;28;19927;-67
2021/11/20 11:41:25;;;;;;;;;;;;;;;10.78;100.00;99825.16;4981341;28;19917;-66
2021/11/20 11:43:53;;;;;;;;;;;;;;;10.43;100.00;99824.97;4979640;28;19925;-67
2021/11/20 11:46:18;;;;;;;;;;;;;;;10.89;100.00;99821.50;4983002;28;21078;-68
2021/11/20 11:48:47;;;;;;;;;;;;;;;11.37;100.00;99811.91;5002371;28;19924;-66
2021/11/20 11:51:15;;;;;;;;;;;;;;;11.38;100.00;99816.19;5000538;28;19932;-67
2021/11/20 11:53:56;;;;;;;;;;;;;;;11.12;100.00;99803.88;5030892;28;20019;-66
2021/11/20 11:56:41;;;;;;;;;;;;;;;11.06;100.00;99800.53;5039675;28;19917;-67
2021/11/20 11:59:09;;;;;;;;;;;;;;;10.99;100.00;99798.09;5020863;28;19925;-67
2021/11/20 12:01:40;;;;;;;;;;;;;;;11.36;100.00;99792.16;5040488;28;19951;-66
2021/11/20 12:04:18;;;;;;;;;;;;;;;11.35;100.00;99785.31;5043557;28;19952;-67
2021/11/20 12:13:10;;;;;;;;;;;;;;;10.72;100.00;99772.06;5040316;28;19936;-66
2021/11/20 12:16:33;;;;;;;;;;;;;;;10.44;100.00;99770.00;4937704;28;19983;-67
2021/11/20 12:19:36;;;;;;;;;;;;;;;10.49;100.00;99767.34;4862354;29;19920;-66
2021/11/20 12:23:00;;;;;;;;;;;;;;;11.37;100.00;99758.59;4854453;29;21557;-66
2021/11/20 12:25:48;;;;;;;;;;;;;;;10.66;100.00;99754.13;4831505;29;20412;-66
2021/11/20 12:32:19;;;;;;;;;;;;;;;11.07;100.00;99740.38;4839206;29;20459;-70
2021/11/20 12:34:56;;;;;;;;;;;;;;;10.86;100.00;99744.25;4785038;29;19925;-66
2021/11/20 12:37:24;;;;;;;;;;;;;;;10.36;100.00;99735.00;4783530;29;19925;-66
2021/11/20 12:40:11;;;;;;;;;;;;;;;10.28;100.00;99742.81;4783353;29;20012;-66
2021/11/20 12:43:15;;;;;;;;;;;;;;;10.22;100.00;99748.09;4781449;29;19925;-66
2021/11/20 12:46:09;;;;;;;;;;;;;;;10.52;100.00;99748.41;4783953;29;19931;-66
2021/11/20 12:49:16;;;;;;;;;;;;;;;10.41;100.00;99746.03;4782889;29;20063;-65
2021/11/20 12:52:38;;;;;;;;;;;;;;;10.51;100.00;99728.69;4785667;29;19917;-66
2021/11/20 12:58:13;;;;;;;;;;;;;;;10.16;100.00;99730.19;4808672;29;20392;-66
2021/11/20 13:01:05;;;;;;;;;;;;;;;10.30;100.00;99725.66;4811543;29;19924;-66